Time;durP1;ratioP1;P1;durP2;ratioP2;P2;SDS_P1;SDS_P2;PMS_P1;PMS_P2;Temp;Humidity;BMP_temperature;BMP_pressure;BME280_temperature;BME280_humidity;BME280_pressure;Samples;Min_cycle;Max_cycle;Signal;HPM_P1;HPM_P2
2023/06/16 00:02:24;;;;;;;11.45;9.80;;;16.70;99.90;;;;;;5005615;28;20132;-89
2023/06/16 00:04:49;;;;;;;14.93;10.55;;;16.70;99.90;;;;;;5004131;28;20456;-89
2023/06/16 00:07:19;;;;;;;13.65;10.50;;;16.70;99.90;;;;;;4988642;28;20038;-87
2023/06/16 00:09:48;;;;;;;13.38;10.98;;;16.70;99.90;;;;;;5003664;28;20062;-88
2023/06/16 00:12:14;;;;;;;11.98;9.98;;;16.70;99.90;;;;;;5007905;28;20037;-89
2023/06/16 00:14:39;;;;;;;13.02;10.77;;;16.70;99.90;;;;;;4981434;28;20056;-88
2023/06/16 00:17:06;;;;;;;16.48;10.10;;;16.60;99.90;;;;;;4987540;28;20053;-87
2023/06/16 00:19:32;;;;;;;13.93;9.68;;;16.60;99.90;;;;;;4995793;28;20050;-90
2023/06/16 00:22:03;;;;;;;10.90;9.23;;;16.50;99.90;;;;;;5015975;28;20759;-88
2023/06/16 00:24:29;;;;;;;15.48;10.10;;;16.50;99.90;;;;;;5006467;28;20057;-88
2023/06/16 00:26:55;;;;;;;16.80;9.70;;;16.50;99.90;;;;;;5003358;28;20141;-90
2023/06/16 00:29:21;;;;;;;12.55;9.38;;;16.40;99.90;;;;;;5002705;28;20097;-90
2023/06/16 00:31:46;;;;;;;9.52;8.52;;;16.40;99.90;;;;;;5011253;28;20255;-88
2023/06/16 00:34:12;;;;;;;10.85;8.98;;;16.30;99.90;;;;;;5015109;28;20051;-88
2023/06/16 00:36:38;;;;;;;14.23;9.73;;;16.30;99.90;;;;;;4981722;28;20046;-88
2023/06/16 00:39:03;;;;;;;13.25;9.52;;;16.20;99.90;;;;;;4993545;28;20038;-90
2023/06/16 00:41:29;;;;;;;14.98;9.75;;;16.20;99.90;;;;;;5016238;28;20034;-89
2023/06/16 00:43:55;;;;;;;20.80;9.65;;;16.10;99.90;;;;;;5017325;28;20534;-89
2023/06/16 00:46:28;;;;;;;15.00;9.10;;;16.10;99.90;;;;;;5008968;28;20046;-89
2023/06/16 00:48:56;;;;;;;16.83;9.57;;;16.00;99.90;;;;;;4996325;28;20352;-90
2023/06/16 00:51:23;;;;;;;16.02;9.50;;;16.00;99.90;;;;;;4998428;28;20374;-90
2023/06/16 00:53:48;;;;;;;14.23;10.38;;;16.00;99.90;;;;;;4998362;28;20042;-90
2023/06/16 00:56:16;;;;;;;11.38;9.90;;;16.00;99.90;;;;;;5013149;28;20047;-88
2023/06/16 00:58:42;;;;;;;12.00;9.68;;;16.00;99.90;;;;;;4998937;28;20487;-90
2023/06/16 01:01:08;;;;;;;13.25;8.85;;;16.00;99.90;;;;;;4991836;28;20050;-88
2023/06/16 01:03:33;;;;;;;13.10;9.38;;;15.90;99.90;;;;;;5008084;28;20169;-87
2023/06/16 01:06:06;;;;;;;14.25;9.30;;;15.90;99.90;;;;;;5009901;28;20053;-89
2023/06/16 01:08:43;;;;;;;13.35;8.57;;;16.00;99.90;;;;;;5009993;28;20049;-90
2023/06/16 01:11:28;;;;;;;9.38;7.82;;;15.90;99.90;;;;;;4998399;28;20070;-89
2023/06/16 01:14:19;;;;;;;10.20;8.60;;;15.90;99.90;;;;;;5008622;28;20037;-89
2023/06/16 01:16:46;;;;;;;10.75;8.73;;;15.90;99.90;;;;;;5006960;28;20053;-89
2023/06/16 01:19:28;;;;;;;13.40;8.77;;;15.80;99.90;;;;;;4993465;28;20037;-90
2023/06/16 01:22:06;;;;;;;10.93;8.57;;;15.70;99.90;;;;;;4982406;28;20044;-91
2023/06/16 01:24:33;;;;;;;11.40;8.73;;;15.70;99.90;;;;;;4998671;28;20042;-91
2023/06/16 01:27:00;;;;;;;12.95;8.48;;;15.70;99.90;;;;;;5010350;28;20053;-92
2023/06/16 01:29:27;;;;;;;11.85;9.40;;;15.60;99.90;;;;;;4992610;28;20038;-91
2023/06/16 01:31:57;;;;;;;11.25;8.95;;;15.60;99.90;;;;;;4998625;28;20050;-91
2023/06/16 01:34:23;;;;;;;10.60;8.68;;;15.60;99.90;;;;;;5012153;28;20149;-88
2023/06/16 01:36:50;;;;;;;12.13;10.00;;;15.60;99.90;;;;;;4995784;28;20509;-87
2023/06/16 01:39:17;;;;;;;13.10;9.95;;;15.60;99.90;;;;;;5013412;28;20042;-90
2023/06/16 01:41:45;;;;;;;13.65;10.35;;;15.50;99.90;;;;;;5015952;28;20404;-90
2023/06/16 01:44:10;;;;;;;12.77;9.95;;;15.50;99.90;;;;;;4992222;28;20038;-89
2023/06/16 01:46:37;;;;;;;13.05;9.88;;;15.50;99.90;;;;;;5004456;28;20390;-89
2023/06/16 01:49:04;;;;;;;12.95;10.15;;;15.50;99.90;;;;;;4995809;28;20042;-89
2023/06/16 01:51:30;;;;;;;15.68;11.10;;;15.40;99.90;;;;;;5007574;28;20050;-89
2023/06/16 01:53:56;;;;;;;12.70;9.93;;;15.40;99.90;;;;;;4990576;28;20512;-91
2023/06/16 01:56:22;;;;;;;15.35;9.95;;;15.30;99.90;;;;;;4994382;28;20133;-91
2023/06/16 01:58:49;;;;;;;11.55;9.73;;;15.30;99.90;;;;;;4996714;28;20045;-92
2023/06/16 02:01:35;;;;;;;11.63;10.20;;;15.20;99.90;;;;;;4976477;28;20045;-90
2023/06/16 02:04:09;;;;;;;14.70;10.50;;;15.20;99.90;;;;;;4995744;28;20038;-90
2023/06/16 02:06:54;;;;;;;11.15;9.50;;;15.20;99.90;;;;;;4994703;28;20100;-92
2023/06/16 02:09:22;;;;;;;16.25;10.15;;;15.10;99.90;;;;;;5009454;28;20044;-91
2023/06/16 02:11:49;;;;;;;13.88;9.90;;;15.10;99.90;;;;;;5017461;28;20038;-91
2023/06/16 02:14:16;;;;;;;11.65;10.45;;;15.10;99.90;;;;;;5011149;28;20065;-91
2023/06/16 02:16:42;;;;;;;14.25;10.77;;;15.00;99.90;;;;;;5015137;28;20421;-90
2023/06/16 02:19:12;;;;;;;14.27;10.85;;;15.00;99.90;;;;;;4994615;28;20100;-92
2023/06/16 02:21:40;;;;;;;16.00;10.25;;;15.00;99.90;;;;;;5013061;28;20050;-90
2023/06/16 02:24:06;;;;;;;13.38;11.23;;;15.00;99.90;;;;;;4993570;28;20095;-88
2023/06/16 02:26:32;;;;;;;14.07;11.18;;;14.90;99.90;;;;;;4978599;28;20046;-91
2023/06/16 02:28:58;;;;;;;13.82;11.02;;;14.90;99.90;;;;;;5005587;28;20452;-90
2023/06/16 02:31:23;;;;;;;14.05;11.35;;;14.80;99.90;;;;;;5010378;28;20046;-89
2023/06/16 02:33:54;;;;;;;15.10;12.15;;;14.80;99.90;;;;;;5013692;28;20057;-91
2023/06/16 02:36:20;;;;;;;12.43;11.10;;;14.80;99.90;;;;;;4993240;28;20048;-90
2023/06/16 02:38:46;;;;;;;14.00;12.15;;;14.80;99.90;;;;;;4992774;28;20045;-90
2023/06/16 02:41:12;;;;;;;13.25;11.85;;;14.70;99.90;;;;;;5029223;28;20045;-89
2023/06/16 02:43:38;;;;;;;14.13;12.70;;;14.70;99.90;;;;;;5020670;28;20050;-91
2023/06/16 02:46:04;;;;;;;15.48;12.35;;;14.70;99.90;;;;;;5013302;28;20289;-92
2023/06/16 02:48:30;;;;;;;13.98;12.48;;;14.70;99.90;;;;;;4996354;28;20034;-91
2023/06/16 02:50:56;;;;;;;15.40;12.43;;;14.60;99.90;;;;;;4992701;28;20092;-91
2023/06/16 02:53:24;;;;;;;14.30;12.63;;;14.60;99.90;;;;;;5009613;28;20117;-91
2023/06/16 02:55:53;;;;;;;13.90;11.73;;;14.60;99.90;;;;;;4975985;28;20897;-92
2023/06/16 02:58:20;;;;;;;15.00;13.43;;;14.60;99.90;;;;;;5011593;28;20046;-92
2023/06/16 03:00:46;;;;;;;16.38;13.90;;;14.50;99.90;;;;;;5013544;28;20085;-92
2023/06/16 03:03:11;;;;;;;17.65;14.98;;;14.60;99.90;;;;;;4993702;28;20069;-92
2023/06/16 03:05:37;;;;;;;16.95;14.43;;;14.60;99.90;;;;;;5009959;28;20050;-92
2023/06/16 03:08:03;;;;;;;19.60;15.73;;;14.50;99.90;;;;;;5008406;28;20093;-92
2023/06/16 03:10:28;;;;;;;17.60;14.90;;;14.50;99.90;;;;;;4987312;28;20576;-92
2023/06/16 03:12:54;;;;;;;17.45;15.18;;;14.50;99.90;;;;;;5013407;28;20508;-93
2023/06/16 03:15:23;;;;;;;17.55;15.32;;;14.50;99.90;;;;;;4993487;28;20555;-93
2023/06/16 03:17:49;;;;;;;18.02;15.98;;;14.50;99.90;;;;;;5011930;28;20095;-92
2023/06/16 03:20:15;;;;;;;19.17;14.85;;;14.50;99.90;;;;;;4995365;28;20046;-92
2023/06/16 03:22:41;;;;;;;19.27;14.50;;;14.50;99.90;;;;;;5017072;28;20056;-91
2023/06/16 03:25:07;;;;;;;16.95;14.60;;;14.50;99.90;;;;;;5012932;28;20049;-90
2023/06/16 03:27:33;;;;;;;16.38;14.63;;;14.50;99.90;;;;;;4996444;28;20056;-93
2023/06/16 03:29:59;;;;;;;17.33;15.40;;;14.50;99.90;;;;;;4981869;28;20046;-90
2023/06/16 03:32:25;;;;;;;19.75;15.98;;;14.50;99.90;;;;;;5001174;28;20046;-90
2023/06/16 03:34:51;;;;;;;20.23;15.98;;;14.50;99.90;;;;;;5011468;28;20545;-91
2023/06/16 03:37:17;;;;;;;19.38;15.45;;;14.50;99.90;;;;;;4992066;28;20050;-91
2023/06/16 03:39:43;;;;;;;21.20;16.02;;;14.50;99.90;;;;;;4995210;28;20130;-91
2023/06/16 03:42:09;;;;;;;17.75;15.55;;;14.40;99.90;;;;;;5012826;28;20529;-89
2023/06/16 03:44:34;;;;;;;18.30;16.30;;;14.50;99.90;;;;;;5010388;28;20049;-89
2023/06/16 03:47:00;;;;;;;19.58;17.48;;;14.50;99.90;;;;;;5005554;28;20118;-91
2023/06/16 03:49:26;;;;;;;19.52;17.05;;;14.50;99.90;;;;;;5007592;28;20046;-92
2023/06/16 03:51:52;;;;;;;22.70;18.20;;;14.50;99.90;;;;;;5000203;28;20578;-93
2023/06/16 03:54:18;;;;;;;22.95;19.95;;;14.50;99.90;;;;;;5018098;28;20035;-88
2023/06/16 03:56:45;;;;;;;23.08;20.70;;;14.50;99.90;;;;;;4989239;28;20046;-86
2023/06/16 03:59:11;;;;;;;23.35;20.95;;;14.50;99.90;;;;;;4998120;28;20073;-93
2023/06/16 04:01:37;;;;;;;23.80;21.20;;;14.50;99.90;;;;;;4991636;28;20073;-93
2023/06/16 04:04:05;;;;;;;23.63;21.13;;;14.60;99.90;;;;;;5007285;28;20089;-89
2023/06/16 04:06:34;;;;;;;27.83;23.67;;;14.50;99.90;;;;;;5013481;28;20188;-90
2023/06/16 04:09:01;;;;;;;32.45;24.42;;;14.60;99.90;;;;;;5000837;28;20048;-92
2023/06/16 04:11:27;;;;;;;28.48;25.33;;;14.60;99.90;;;;;;5014684;28;20045;-92
2023/06/16 04:13:53;;;;;;;29.30;25.55;;;14.70;99.90;;;;;;5014182;28;20045;-90
2023/06/16 04:16:19;;;;;;;27.80;23.52;;;14.90;99.90;;;;;;5011287;28;20042;-92
2023/06/16 04:18:48;;;;;;;33.63;25.15;;;15.20;99.90;;;;;;5014169;28;20043;-91
2023/06/16 04:21:14;;;;;;;26.55;23.08;;;15.70;99.90;;;;;;4993434;28;20490;-89
2023/06/16 04:23:40;;;;;;;25.70;22.98;;;16.20;99.90;;;;;;4978854;28;20053;-90
2023/06/16 04:26:07;;;;;;;25.15;22.15;;;16.70;99.90;;;;;;5012549;28;20067;-90
2023/06/16 04:28:33;;;;;;;27.00;22.05;;;17.10;99.90;;;;;;5016040;28;20046;-94
2023/06/16 04:31:00;;;;;;;25.58;22.27;;;17.30;99.90;;;;;;5015898;28;20523;-86
2023/06/16 04:33:26;;;;;;;28.15;21.10;;;17.10;99.90;;;;;;5013463;28;20033;-90
2023/06/16 04:35:52;;;;;;;23.23;20.80;;;16.80;99.90;;;;;;5009551;28;20045;-74
2023/06/16 04:38:19;;;;;;;25.88;22.63;;;16.60;99.90;;;;;;5008337;28;20084;-75
2023/06/16 04:40:45;;;;;;;27.67;24.17;;;16.40;99.90;;;;;;5007166;28;20065;-90
2023/06/16 04:43:11;;;;;;;36.13;25.52;;;16.30;99.90;;;;;;4987028;28;20076;-91
2023/06/16 04:45:37;;;;;;;26.85;23.95;;;16.10;99.90;;;;;;4992849;28;20478;-87
2023/06/16 04:48:02;;;;;;;26.92;22.90;;;16.10;99.90;;;;;;4988651;28;20068;-87
2023/06/16 04:50:28;;;;;;;30.38;24.13;;;16.00;99.90;;;;;;4992615;28;20909;-90
2023/06/16 04:52:54;;;;;;;28.25;24.58;;;16.00;99.90;;;;;;5001135;28;20245;-91
2023/06/16 04:55:20;;;;;;;26.42;23.63;;;16.00;99.90;;;;;;4995091;28;20042;-91
2023/06/16 04:57:46;;;;;;;27.83;23.73;;;16.00;99.90;;;;;;5001305;28;20675;-89
2023/06/16 05:00:13;;;;;;;28.55;25.10;;;16.10;99.90;;;;;;5023741;28;20121;-89
2023/06/16 05:02:40;;;;;;;26.83;23.38;;;16.10;99.90;;;;;;5011248;28;20046;-88
2023/06/16 05:05:06;;;;;;;28.40;25.15;;;16.20;99.90;;;;;;5030390;28;20072;-89
2023/06/16 05:07:31;;;;;;;29.30;25.25;;;16.30;99.90;;;;;;5008445;28;20074;-91
2023/06/16 05:09:57;;;;;;;27.67;22.33;;;16.40;99.90;;;;;;5030157;28;20046;-87
2023/06/16 05:12:25;;;;;;;27.65;24.30;;;16.50;99.90;;;;;;5007731;28;20187;-89
2023/06/16 05:14:52;;;;;;;28.38;24.20;;;16.70;99.90;;;;;;5011501;28;20050;-88
2023/06/16 05:17:18;;;;;;;26.30;22.95;;;16.80;99.90;;;;;;4992129;28;20053;-90
2023/06/16 05:19:43;;;;;;;23.60;21.13;;;16.90;99.90;;;;;;4981793;28;20144;-87
2023/06/16 05:22:09;;;;;;;28.23;21.33;;;17.00;99.90;;;;;;5010148;28;20049;-73
2023/06/16 05:24:34;;;;;;;23.23;20.73;;;17.20;99.90;;;;;;4989885;28;20049;-85
2023/06/16 05:27:00;;;;;;;22.75;20.33;;;17.30;99.90;;;;;;4992214;28;20044;-85
2023/06/16 05:29:26;;;;;;;23.63;20.27;;;17.50;99.90;;;;;;4992543;28;20050;-86
2023/06/16 05:31:51;;;;;;;24.23;19.58;;;17.60;99.90;;;;;;4986631;28;20049;-81
2023/06/16 05:34:17;;;;;;;22.00;19.42;;;17.70;99.90;;;;;;5099253;22;20042;-86
2023/06/16 05:36:43;;;;;;;22.10;18.67;;;17.90;99.90;;;;;;5000546;28;20038;-85
2023/06/16 05:39:14;;;;;;;19.95;18.02;;;18.00;99.90;;;;;;5064507;22;20471;-85
2023/06/16 05:41:40;;;;;;;20.60;18.00;;;18.10;99.90;;;;;;5036532;28;21943;-85
2023/06/16 05:44:07;;;;;;;19.55;17.45;;;18.20;99.90;;;;;;5043636;28;20041;-85
2023/06/16 05:46:32;;;;;;;18.85;16.83;;;18.40;99.90;;;;;;5046625;28;20053;-88
2023/06/16 05:49:01;;;;;;;20.30;15.70;;;18.40;99.90;;;;;;5043985;28;20400;-84
2023/06/16 05:51:27;;;;;;;16.83;14.60;;;18.50;99.90;;;;;;5041522;28;20487;-80
2023/06/16 05:53:52;;;;;;;17.00;15.30;;;18.60;99.90;;;;;;5035539;28;20134;-79
2023/06/16 05:56:18;;;;;;;20.02;17.00;;;18.70;99.90;;;;;;5028345;28;20037;-79
2023/06/16 05:58:44;;;;;;;21.20;17.15;;;18.80;99.90;;;;;;5042688;28;20056;-79
2023/06/16 06:01:12;;;;;;;18.70;16.85;;;19.00;99.90;;;;;;5005783;28;20037;-80
2023/06/16 06:03:37;;;;;;;18.00;16.20;;;19.10;99.90;;;;;;5004611;28;20052;-79
2023/06/16 06:06:03;;;;;;;19.48;17.35;;;19.20;99.90;;;;;;5018198;28;20045;-79
2023/06/16 06:08:29;;;;;;;19.30;17.33;;;19.30;99.90;;;;;;5022732;28;20102;-79
2023/06/16 06:10:55;;;;;;;19.77;16.55;;;19.50;99.90;;;;;;5020130;28;20072;-78
2023/06/16 06:13:21;;;;;;;19.88;17.90;;;19.50;99.90;;;;;;5016768;28;20087;-79
2023/06/16 06:15:47;;;;;;;16.63;14.80;;;19.60;99.90;;;;;;5037480;28;20045;-80
2023/06/16 06:18:13;;;;;;;16.77;14.18;;;19.70;99.90;;;;;;5037989;28;20052;-78
2023/06/16 06:20:39;;;;;;;16.58;13.85;;;19.80;99.90;;;;;;5017386;28;20037;-79
2023/06/16 06:23:05;;;;;;;16.58;14.65;;;20.00;99.90;;;;;;5037869;28;20049;-79
2023/06/16 06:25:31;;;;;;;18.05;14.02;;;20.10;99.90;;;;;;4996839;28;20159;-79
2023/06/16 06:27:57;;;;;;;14.32;12.65;;;20.20;99.90;;;;;;5003057;28;20033;-77
2023/06/16 06:30:24;;;;;;;17.27;12.95;;;20.30;99.90;;;;;;5039718;28;20470;-81
2023/06/16 06:32:50;;;;;;;14.75;13.15;;;20.40;99.90;;;;;;5039716;28;20110;-79
2023/06/16 06:35:16;;;;;;;17.02;12.55;;;20.50;99.90;;;;;;5001379;28;20484;-80
2023/06/16 06:37:42;;;;;;;11.95;10.75;;;20.60;99.90;;;;;;5035793;28;20065;-79
2023/06/16 06:40:08;;;;;;;15.73;10.57;;;20.70;99.90;;;;;;5046416;28;20588;-78
2023/06/16 06:42:34;;;;;;;12.32;10.40;;;20.80;99.90;;;;;;5057570;28;20099;-72
2023/06/16 06:45:01;;;;;;;12.35;10.15;;;20.90;99.90;;;;;;5034543;28;20450;-82
2023/06/16 06:47:27;;;;;;;10.45;8.43;;;21.00;99.90;;;;;;5063065;28;20469;-83
2023/06/16 06:49:54;;;;;;;16.50;9.27;;;21.10;99.90;;;;;;5059237;28;20037;-84
2023/06/16 06:52:19;;;;;;;11.65;9.45;;;21.30;99.90;;;;;;5057243;28;20113;-83
2023/06/16 06:54:45;;;;;;;11.20;8.30;;;21.40;99.90;;;;;;5059746;28;20434;-83
2023/06/16 06:57:12;;;;;;;10.90;8.18;;;21.50;99.90;;;;;;5057705;28;20165;-83
2023/06/16 06:59:42;;;;;;;12.25;9.18;;;21.60;99.90;;;;;;5044370;28;20059;-81
2023/06/16 07:02:08;;;;;;;12.13;8.40;;;21.60;99.90;;;;;;5038871;28;20152;-80
2023/06/16 07:04:35;;;;;;;12.10;7.85;;;21.80;99.90;;;;;;5054183;28;20045;-82
2023/06/16 07:07:02;;;;;;;14.13;9.05;;;21.90;99.90;;;;;;5022504;28;20402;-84
2023/06/16 07:09:27;;;;;;;10.38;8.57;;;22.00;99.90;;;;;;5041287;28;20037;-76
2023/06/16 07:11:53;;;;;;;9.63;7.70;;;22.10;99.90;;;;;;5041193;28;20552;-81
2023/06/16 07:14:19;;;;;;;8.43;6.43;;;22.20;99.90;;;;;;5056885;28;20044;-80
2023/06/16 07:16:44;;;;;;;10.32;6.78;;;22.20;99.90;;;;;;5037736;28;20060;-80
2023/06/16 07:19:10;;;;;;;10.93;7.07;;;22.30;99.90;;;;;;5056302;28;20048;-79
2023/06/16 07:21:38;;;;;;;11.90;6.68;;;22.40;99.90;;;;;;5044457;28;20051;-80
2023/06/16 07:24:05;;;;;;;10.85;6.43;;;22.50;99.90;;;;;;5042983;28;20443;-79
2023/06/16 07:26:31;;;;;;;9.20;6.45;;;22.60;99.90;;;;;;5069746;28;20060;-79
2023/06/16 07:28:56;;;;;;;10.82;6.18;;;22.60;99.90;;;;;;5065591;28;20040;-77
2023/06/16 07:31:22;;;;;;;8.23;6.10;;;22.70;99.90;;;;;;5048678;28;20051;-78
2023/06/16 07:33:47;;;;;;;7.78;5.50;;;22.80;99.90;;;;;;5061373;28;20044;-77
2023/06/16 07:36:13;;;;;;;7.28;5.55;;;22.90;99.90;;;;;;5043316;28;20045;-79
2023/06/16 07:38:39;;;;;;;10.70;6.40;;;23.00;99.90;;;;;;5041474;28;20101;-79
2023/06/16 07:41:06;;;;;;;10.00;6.30;;;23.10;99.90;;;;;;5057016;28;20146;-78
2023/06/16 07:43:31;;;;;;;7.43;5.55;;;23.20;99.90;;;;;;5066190;28;20166;-77
2023/06/16 07:45:57;;;;;;;11.77;5.70;;;23.40;99.90;;;;;;5064854;28;20041;-79
2023/06/16 07:48:23;;;;;;;8.05;5.43;;;23.40;99.90;;;;;;5067599;28;20036;-78
2023/06/16 07:50:48;;;;;;;8.18;5.20;;;23.40;99.90;;;;;;5071637;28;20044;-78
2023/06/16 07:53:14;;;;;;;6.72;4.38;;;23.50;99.90;;;;;;5065897;28;20442;-79
2023/06/16 07:55:40;;;;;;;5.93;4.15;;;23.60;99.90;;;;;;5070174;28;20049;-77
2023/06/16 07:58:06;;;;;;;6.80;4.60;;;23.70;99.90;;;;;;5069488;28;20137;-77
2023/06/16 08:00:32;;;;;;;9.60;4.00;;;23.70;99.90;;;;;;5060257;28;20055;-77
2023/06/16 08:02:58;;;;;;;5.70;3.75;;;23.80;99.90;;;;;;5062629;28;20421;-77
2023/06/16 08:05:29;;;;;;;8.32;4.00;;;23.80;99.90;;;;;;5064424;28;20483;-76
2023/06/16 08:07:55;;;;;;;6.60;4.50;;;23.90;99.90;;;;;;5065609;28;20044;-76
2023/06/16 08:10:21;;;;;;;5.88;3.65;;;23.90;99.90;;;;;;5061044;28;20129;-75
2023/06/16 08:12:51;;;;;;;7.00;3.85;;;23.90;99.90;;;;;;5059964;28;20171;-75
2023/06/16 08:15:18;;;;;;;6.05;4.25;;;24.00;99.90;;;;;;5066551;28;20806;-77
2023/06/16 08:17:44;;;;;;;8.70;3.90;;;24.10;99.90;;;;;;5058254;28;20082;-75
2023/06/16 08:20:11;;;;;;;6.45;3.83;;;24.10;99.90;;;;;;5067349;28;20131;-75
2023/06/16 08:22:36;;;;;;;4.68;3.75;;;24.20;99.90;;;;;;5062106;28;20427;-77
2023/06/16 08:25:04;;;;;;;6.35;3.58;;;24.30;99.90;;;;;;5062144;28;20044;-75
2023/06/16 08:27:30;;;;;;;7.78;3.08;;;24.40;99.90;;;;;;5065608;28;20048;-76
2023/06/16 08:29:55;;;;;;;6.25;3.35;;;24.40;99.10;;;;;;5063709;28;20469;-75
2023/06/16 08:32:22;;;;;;;6.03;2.95;;;24.40;98.80;;;;;;5057522;28;20052;-75
2023/06/16 08:34:48;;;;;;;4.93;2.72;;;24.50;99.30;;;;;;5061739;28;20048;-76
2023/06/16 08:37:13;;;;;;;4.22;2.85;;;24.70;98.80;;;;;;5058421;28;20044;-75
2023/06/16 08:39:43;;;;;;;5.35;2.92;;;24.70;97.90;;;;;;5052109;28;20048;-76
2023/06/16 08:42:13;;;;;;;4.20;2.83;;;24.80;98.80;;;;;;5007105;28;20041;-75
2023/06/16 08:44:40;;;;;;;7.28;2.80;;;24.90;98.60;;;;;;5040377;28;20400;-76
2023/06/16 08:47:08;;;;;;;5.28;2.55;;;24.90;98.90;;;;;;5028100;28;20547;-75
2023/06/16 08:49:33;;;;;;;4.75;2.55;;;25.00;98.20;;;;;;5023964;28;20040;-75
2023/06/16 08:52:02;;;;;;;6.70;2.40;;;25.10;98.40;;;;;;5039554;28;20554;-75
2023/06/16 08:54:32;;;;;;;6.47;2.80;;;25.10;98.20;;;;;;5035409;28;20237;-76
2023/06/16 08:57:01;;;;;;;5.25;2.00;;;25.10;97.90;;;;;;5028369;28;20077;-75
2023/06/16 08:59:30;;;;;;;6.93;2.63;;;25.10;96.80;;;;;;5033691;28;20048;-75
2023/06/16 09:01:57;;;;;;;4.78;2.10;;;25.10;97.60;;;;;;5035210;28;20107;-75
2023/06/16 09:04:23;;;;;;;4.55;2.22;;;25.20;97.20;;;;;;5028913;28;20049;-74
2023/06/16 09:06:48;;;;;;;5.15;2.33;;;25.20;97.30;;;;;;4998360;28;20045;-75
2023/06/16 09:09:16;;;;;;;5.28;2.90;;;25.30;97.30;;;;;;5021555;28;20045;-75
2023/06/16 09:11:41;;;;;;;4.38;2.28;;;25.40;97.10;;;;;;5021638;28;20072;-75
2023/06/16 09:14:13;;;;;;;3.92;2.30;;;25.50;96.70;;;;;;5037791;28;20518;-75
2023/06/16 09:16:39;;;;;;;5.50;2.63;;;25.50;96.40;;;;;;5024838;28;20105;-75
2023/06/16 09:19:09;;;;;;;5.38;2.20;;;25.50;96.20;;;;;;5017412;28;20308;-75
2023/06/16 09:21:37;;;;;;;8.50;2.40;;;25.50;96.40;;;;;;5032730;28;20052;-76
2023/06/16 09:24:06;;;;;;;4.93;2.30;;;25.60;96.10;;;;;;5040130;28;20041;-75
2023/06/16 09:26:35;;;;;;;3.65;1.98;;;25.70;95.90;;;;;;5036994;28;20107;-75
2023/06/16 09:29:19;;;;;;;8.73;2.60;;;25.70;96.00;;;;;;5026514;28;20041;-74
2023/06/16 09:31:45;;;;;;;3.05;2.00;;;25.70;96.00;;;;;;5037864;28;20055;-76
2023/06/16 09:34:11;;;;;;;5.43;2.15;;;25.80;95.50;;;;;;5036801;28;20040;-74
2023/06/16 09:36:37;;;;;;;3.42;2.30;;;25.90;95.40;;;;;;5042086;28;20671;-75
2023/06/16 09:39:05;;;;;;;7.68;2.60;;;25.90;95.00;;;;;;5026422;28;20045;-74
2023/06/16 09:41:34;;;;;;;4.82;2.55;;;25.90;95.50;;;;;;5041233;28;20037;-75
2023/06/16 09:44:02;;;;;;;4.90;2.10;;;25.90;94.50;;;;;;5046142;28;20049;-74
2023/06/16 09:46:29;;;;;;;4.57;2.58;;;25.90;94.80;;;;;;5056310;28;20067;-75
2023/06/16 09:48:54;;;;;;;4.85;2.15;;;25.80;95.50;;;;;;5050557;28;20131;-78
2023/06/16 09:51:22;;;;;;;7.18;2.53;;;25.90;95.20;;;;;;5047651;28;22150;-77
2023/06/16 09:53:48;;;;;;;4.65;2.40;;;25.90;94.50;;;;;;5036891;28;20091;-75
2023/06/16 09:56:15;;;;;;;4.35;2.38;;;26.00;95.20;;;;;;5033598;28;20044;-74
2023/06/16 09:58:42;;;;;;;4.13;2.50;;;26.00;95.00;;;;;;5056678;28;20039;-76
2023/06/16 10:01:10;;;;;;;5.00;3.05;;;26.00;95.50;;;;;;5025638;28;21249;-75
2023/06/16 10:03:39;;;;;;;4.20;2.28;;;26.00;95.20;;;;;;5055427;28;20406;-76
2023/06/16 10:06:19;;;;;;;4.63;1.90;;;26.00;94.80;;;;;;5038552;28;20047;-88
2023/06/16 10:08:47;;;;;;;4.43;2.05;;;26.00;94.20;;;;;;5031844;28;20044;-94
2023/06/16 10:11:15;;;;;;;4.85;2.28;;;26.10;94.80;;;;;;5044126;28;20041;-84
2023/06/16 10:13:50;;;;;;;3.78;2.55;;;26.10;95.00;;;;;;5055520;28;20519;-85
2023/06/16 10:16:17;;;;;;;3.85;2.10;;;26.20;95.20;;;;;;5055897;28;20032;-84
2023/06/16 10:18:44;;;;;;;6.28;2.42;;;26.30;94.70;;;;;;5058948;28;20499;-84
2023/06/16 10:21:11;;;;;;;5.30;2.30;;;26.30;95.20;;;;;;5063434;28;20041;-85
2023/06/16 10:23:37;;;;;;;5.28;2.08;;;26.30;95.00;;;;;;5055864;28;20126;-88
2023/06/16 10:26:06;;;;;;;4.22;2.30;;;26.30;95.00;;;;;;5041167;28;20048;-89
2023/06/16 10:28:35;;;;;;;5.82;2.40;;;26.30;95.70;;;;;;5058978;28;20137;-85
2023/06/16 10:31:03;;;;;;;4.45;2.50;;;26.40;95.40;;;;;;5026723;28;20036;-81
2023/06/16 10:33:50;;;;;;;3.55;2.38;;;26.40;95.50;;;;;;5058984;28;20514;-86
2023/06/16 10:36:19;;;;;;;3.97;2.17;;;26.40;95.00;;;;;;5055594;28;20063;-83
2023/06/16 10:39:01;;;;;;;4.75;2.30;;;26.40;95.40;;;;;;5057715;28;20056;-84
2023/06/16 10:41:31;;;;;;;4.32;2.42;;;26.40;95.60;;;;;;5064502;28;20438;-85
2023/06/16 10:44:22;;;;;;;5.35;2.50;;;26.40;95.90;;;;;;5048011;28;20044;-85
2023/06/16 10:47:10;;;;;;;3.90;2.40;;;26.50;96.20;;;;;;5068322;28;20114;-85
2023/06/16 10:49:55;;;;;;;5.53;2.72;;;26.50;95.60;;;;;;5062379;28;20072;-84
2023/06/16 10:52:35;;;;;;;4.63;3.00;;;26.60;95.80;;;;;;5063127;28;20055;-80
2023/06/16 10:55:28;;;;;;;4.85;2.22;;;26.60;95.40;;;;;;5057842;28;20048;-83
2023/06/16 10:58:15;;;;;;;5.30;2.35;;;26.60;94.90;;;;;;5050337;28;20041;-85
2023/06/16 11:00:42;;;;;;;6.07;2.80;;;26.50;94.80;;;;;;5034409;28;20073;-84
2023/06/16 11:03:08;;;;;;;8.90;2.25;;;26.40;94.90;;;;;;5057739;28;20991;-84
2023/06/16 11:05:38;;;;;;;6.90;2.63;;;26.40;94.80;;;;;;5036331;28;20055;-83
2023/06/16 11:08:05;;;;;;;6.40;2.60;;;26.30;94.60;;;;;;5069443;28;20048;-85
2023/06/16 11:10:52;;;;;;;5.35;2.45;;;26.30;94.70;;;;;;5059189;28;20090;-86
2023/06/16 11:13:22;;;;;;;4.75;2.20;;;26.40;94.70;;;;;;5058618;28;20139;-84
2023/06/16 11:15:47;;;;;;;4.00;2.38;;;26.40;94.80;;;;;;5027916;28;20048;-84
2023/06/16 11:18:13;;;;;;;4.13;2.35;;;26.40;94.60;;;;;;5039740;28;20365;-85
2023/06/16 11:20:40;;;;;;;6.88;2.40;;;26.50;94.70;;;;;;5068454;28;20056;-85
2023/06/16 11:23:07;;;;;;;3.47;2.28;;;26.50;94.50;;;;;;5056715;28;20060;-82
2023/06/16 11:25:32;;;;;;;6.78;2.40;;;26.50;94.40;;;;;;5028275;28;20044;-77
2023/06/16 11:27:59;;;;;;;3.25;2.20;;;26.50;94.50;;;;;;5056948;28;20075;-85
2023/06/16 11:30:25;;;;;;;3.65;2.33;;;26.60;94.80;;;;;;5038586;28;20075;-81
2023/06/16 11:32:52;;;;;;;3.58;2.00;;;26.60;94.80;;;;;;5041753;28;20127;-84
2023/06/16 11:35:18;;;;;;;11.38;4.03;;;26.60;94.50;;;;;;5047226;28;20033;-85
2023/06/16 11:37:54;;;;;;;17.60;5.38;;;26.60;94.50;;;;;;5023895;28;20049;-85
2023/06/16 11:40:25;;;;;;;30.88;11.32;;;26.60;94.20;;;;;;5053752;28;20065;-85
2023/06/16 11:42:55;;;;;;;23.25;8.93;;;26.60;95.40;;;;;;5051341;28;20522;-88
2023/06/16 11:45:21;;;;;;;5.28;2.50;;;26.80;95.50;;;;;;5056962;28;20127;-88
2023/06/16 11:47:48;;;;;;;9.15;2.63;;;26.80;93.70;;;;;;5055943;28;20036;-85
2023/06/16 11:50:17;;;;;;;7.10;2.30;;;26.70;93.90;;;;;;5034414;28;20055;-90
2023/06/16 11:52:43;;;;;;;4.43;2.47;;;26.70;93.70;;;;;;5056324;28;20033;-88
2023/06/16 11:55:09;;;;;;;5.57;2.20;;;26.70;94.10;;;;;;5046364;28;20047;-88
2023/06/16 11:57:38;;;;;;;5.95;2.33;;;26.60;93.40;;;;;;5053617;28;20071;-88
2023/06/16 12:00:05;;;;;;;4.38;2.00;;;26.60;93.70;;;;;;5056075;28;20131;-82
2023/06/16 12:02:31;;;;;;;3.78;2.25;;;26.60;93.30;;;;;;5057329;28;20047;-88
2023/06/16 12:04:57;;;;;;;6.45;2.47;;;26.60;93.50;;;;;;5060615;28;20590;-90
2023/06/16 12:07:26;;;;;;;4.97;2.13;;;26.60;93.80;;;;;;5065012;28;20055;-90
2023/06/16 12:09:55;;;;;;;3.85;2.42;;;26.60;93.30;;;;;;5068958;28;20056;-75
2023/06/16 12:12:25;;;;;;;7.30;2.67;;;26.60;93.00;;;;;;5057426;28;20068;-78
2023/06/16 12:14:51;;;;;;;4.03;2.30;;;26.60;93.40;;;;;;5067216;28;20041;-81
2023/06/16 12:17:17;;;;;;;4.22;2.67;;;26.70;93.70;;;;;;5066143;28;20059;-80
2023/06/16 12:19:44;;;;;;;3.75;2.33;;;26.70;93.00;;;;;;5059074;28;20040;-79
2023/06/16 12:22:10;;;;;;;3.30;2.30;;;26.70;92.70;;;;;;5061828;28;20055;-80
2023/06/16 12:24:40;;;;;;;4.07;2.10;;;26.70;93.70;;;;;;5032220;28;20044;-79
2023/06/16 12:27:05;;;;;;;3.80;2.35;;;26.70;93.40;;;;;;5060379;28;20121;-79
2023/06/16 12:29:32;;;;;;;5.72;2.40;;;26.80;93.40;;;;;;5066090;28;20072;-78
2023/06/16 12:32:04;;;;;;;5.45;2.17;;;26.80;93.80;;;;;;5063298;28;20055;-79
2023/06/16 12:34:33;;;;;;;4.53;2.22;;;26.80;93.40;;;;;;5065410;28;20041;-76
2023/06/16 12:37:06;;;;;;;4.35;2.35;;;26.80;93.20;;;;;;5044835;28;20055;-79
2023/06/16 12:39:33;;;;;;;5.80;2.53;;;26.80;93.30;;;;;;5055470;28;20471;-75